sensor_id;sensor_type;location;lat;lon;timestamp;P1;durP1;ratioP1;P2;durP2;ratioP2
28714;SDS011;15886;49.170;14.572;2023-05-10T04:08:51;7.45;;;4.13;;
28714;SDS011;15886;49.170;14.572;2023-05-10T04:12:56;9.88;;;5.15;;
28714;SDS011;15886;49.170;14.572;2023-05-10T04:19:37;10.02;;;5.55;;
28714;SDS011;15886;49.170;14.572;2023-05-10T04:30:25;7.97;;;4.73;;
28714;SDS011;15886;49.170;14.572;2023-05-10T05:13:44;12.23;;;4.10;;
28714;SDS011;15886;49.170;14.572;2023-05-10T05:17:27;4.72;;;3.55;;
28714;SDS011;15886;49.170;14.572;2023-05-10T05:22:55;6.50;;;3.80;;
28714;SDS011;15886;49.170;14.572;2023-05-10T05:26:10;6.78;;;3.70;;
28714;SDS011;15886;49.170;14.572;2023-05-10T05:36:53;5.10;;;4.05;;
28714;SDS011;15886;49.170;14.572;2023-05-10T06:02:46;12.07;;;4.45;;
28714;SDS011;15886;49.170;14.572;2023-05-10T06:05:40;6.45;;;3.88;;
28714;SDS011;15886;49.170;14.572;2023-05-10T06:24:35;6.60;;;3.67;;
28714;SDS011;15886;49.170;14.572;2023-05-10T06:27:41;5.35;;;3.60;;
28714;SDS011;15886;49.170;14.572;2023-05-10T06:53:35;17.85;;;4.72;;
28714;SDS011;15886;49.170;14.572;2023-05-10T07:17:05;4.95;;;3.50;;
28714;SDS011;15886;49.170;14.572;2023-05-10T07:24:58;4.22;;;2.97;;
28714;SDS011;15886;49.170;14.572;2023-05-10T07:40:05;10.00;;;3.63;;
28714;SDS011;15886;49.170;14.572;2023-05-10T07:51:57;5.47;;;3.75;;
28714;SDS011;15886;49.170;14.572;2023-05-10T07:55:20;5.57;;;2.92;;
28714;SDS011;15886;49.170;14.572;2023-05-10T09:42:24;6.07;;;3.42;;
28714;SDS011;15886;49.170;14.572;2023-05-10T12:33:42;5.40;;;3.50;;
28714;SDS011;15886;49.170;14.572;2023-05-10T13:44:52;4.03;;;2.80;;
28714;SDS011;15886;49.170;14.572;2023-05-10T13:59:10;5.72;;;3.15;;
28714;SDS011;15886;49.170;14.572;2023-05-10T14:02:40;4.70;;;2.97;;
28714;SDS011;15886;49.170;14.572;2023-05-10T14:16:52;5.53;;;1.70;;
28714;SDS011;15886;49.170;14.572;2023-05-10T14:23:32;3.05;;;1.63;;
28714;SDS011;15886;49.170;14.572;2023-05-10T14:26:01;5.45;;;1.58;;
28714;SDS011;15886;49.170;14.572;2023-05-10T14:28:30;7.82;;;1.50;;
28714;SDS011;15886;49.170;14.572;2023-05-10T14:30:58;2.55;;;1.42;;
28714;SDS011;15886;49.170;14.572;2023-05-10T14:33:41;4.72;;;2.08;;
28714;SDS011;15886;49.170;14.572;2023-05-10T14:36:11;2.75;;;1.85;;
28714;SDS011;15886;49.170;14.572;2023-05-10T14:45:31;4.00;;;1.63;;
28714;SDS011;15886;49.170;14.572;2023-05-10T14:48:02;3.55;;;1.70;;
28714;SDS011;15886;49.170;14.572;2023-05-10T14:50:51;3.03;;;1.75;;
28714;SDS011;15886;49.170;14.572;2023-05-10T14:53:35;3.10;;;1.83;;
28714;SDS011;15886;49.170;14.572;2023-05-10T15:04:10;3.92;;;2.30;;
28714;SDS011;15886;49.170;14.572;2023-05-10T15:06:56;2.83;;;2.35;;
28714;SDS011;15886;49.170;14.572;2023-05-10T15:09:28;4.88;;;2.60;;
28714;SDS011;15886;49.170;14.572;2023-05-10T15:14:56;3.00;;;2.10;;
28714;SDS011;15886;49.170;14.572;2023-05-10T15:17:38;4.57;;;2.33;;
28714;SDS011;15886;49.170;14.572;2023-05-10T15:20:21;1.80;;;1.58;;
28714;SDS011;15886;49.170;14.572;2023-05-10T15:22:58;1.85;;;1.40;;
28714;SDS011;15886;49.170;14.572;2023-05-10T16:34:14;4.55;;;2.72;;
28714;SDS011;15886;49.170;14.572;2023-05-10T16:36:47;3.65;;;2.50;;
28714;SDS011;15886;49.170;14.572;2023-05-10T17:06:23;8.43;;;2.00;;
28714;SDS011;15886;49.170;14.572;2023-05-10T17:09:53;4.05;;;2.40;;
28714;SDS011;15886;49.170;14.572;2023-05-10T19:59:21;10.35;;;7.05;;
28714;SDS011;15886;49.170;14.572;2023-05-10T20:03:11;10.63;;;6.68;;
28714;SDS011;15886;49.170;14.572;2023-05-10T20:05:53;12.60;;;6.82;;
28714;SDS011;15886;49.170;14.572;2023-05-10T20:08:59;10.68;;;5.78;;
28714;SDS011;15886;49.170;14.572;2023-05-10T20:22:48;8.13;;;7.25;;
28714;SDS011;15886;49.170;14.572;2023-05-10T20:28:23;10.63;;;7.10;;
28714;SDS011;15886;49.170;14.572;2023-05-10T20:31:13;11.48;;;7.97;;
28714;SDS011;15886;49.170;14.572;2023-05-10T20:37:43;9.63;;;8.27;;
28714;SDS011;15886;49.170;14.572;2023-05-10T20:40:41;10.18;;;9.07;;
28714;SDS011;15886;49.170;14.572;2023-05-10T20:43:39;10.15;;;8.13;;
28714;SDS011;15886;49.170;14.572;2023-05-10T20:49:55;8.48;;;6.93;;
28714;SDS011;15886;49.170;14.572;2023-05-10T20:53:13;9.18;;;8.10;;
28714;SDS011;15886;49.170;14.572;2023-05-10T20:56:16;10.70;;;8.15;;
28714;SDS011;15886;49.170;14.572;2023-05-10T20:59:23;11.48;;;7.60;;
28714;SDS011;15886;49.170;14.572;2023-05-10T21:13:17;8.00;;;6.50;;
28714;SDS011;15886;49.170;14.572;2023-05-10T21:16:47;6.90;;;5.72;;
28714;SDS011;15886;49.170;14.572;2023-05-10T21:20:03;8.27;;;5.55;;
28714;SDS011;15886;49.170;14.572;2023-05-10T21:22:56;8.23;;;5.68;;
28714;SDS011;15886;49.170;14.572;2023-05-10T21:25:34;11.35;;;8.48;;
28714;SDS011;15886;49.170;14.572;2023-05-10T21:28:07;9.73;;;7.00;;
28714;SDS011;15886;49.170;14.572;2023-05-10T21:30:40;11.23;;;7.28;;
28714;SDS011;15886;49.170;14.572;2023-05-10T21:33:09;9.85;;;7.38;;
28714;SDS011;15886;49.170;14.572;2023-05-10T21:35:42;8.55;;;6.10;;
28714;SDS011;15886;49.170;14.572;2023-05-10T21:38:31;9.32;;;6.63;;
28714;SDS011;15886;49.170;14.572;2023-05-10T21:41:09;12.35;;;6.25;;
28714;SDS011;15886;49.170;14.572;2023-05-10T21:44:03;9.23;;;6.15;;
28714;SDS011;15886;49.170;14.572;2023-05-10T21:47:03;8.65;;;6.35;;
28714;SDS011;15886;49.170;14.572;2023-05-10T21:49:38;8.55;;;5.57;;
28714;SDS011;15886;49.170;14.572;2023-05-10T21:52:59;13.95;;;6.28;;
28714;SDS011;15886;49.170;14.572;2023-05-10T21:55:48;9.85;;;6.45;;
28714;SDS011;15886;49.170;14.572;2023-05-10T21:58:39;8.18;;;6.07;;
28714;SDS011;15886;49.170;14.572;2023-05-10T22:01:27;8.82;;;6.35;;
28714;SDS011;15886;49.170;14.572;2023-05-10T22:04:21;9.68;;;6.03;;
28714;SDS011;15886;49.170;14.572;2023-05-10T22:06:54;9.15;;;6.47;;
28714;SDS011;15886;49.170;14.572;2023-05-10T22:09:24;9.43;;;5.93;;
28714;SDS011;15886;49.170;14.572;2023-05-10T22:12:19;11.02;;;7.60;;
28714;SDS011;15886;49.170;14.572;2023-05-10T22:14:52;8.60;;;6.18;;
28714;SDS011;15886;49.170;14.572;2023-05-10T22:17:32;12.23;;;6.80;;
28714;SDS011;15886;49.170;14.572;2023-05-10T22:20:14;11.52;;;8.00;;
28714;SDS011;15886;49.170;14.572;2023-05-10T22:22:57;9.15;;;6.82;;
28714;SDS011;15886;49.170;14.572;2023-05-10T22:25:39;14.20;;;7.95;;
28714;SDS011;15886;49.170;14.572;2023-05-10T22:28:08;15.25;;;6.80;;
28714;SDS011;15886;49.170;14.572;2023-05-10T22:30:54;13.55;;;7.65;;
28714;SDS011;15886;49.170;14.572;2023-05-10T22:33:30;8.77;;;6.57;;
28714;SDS011;15886;49.170;14.572;2023-05-10T22:36:05;11.18;;;7.15;;
28714;SDS011;15886;49.170;14.572;2023-05-10T22:39:02;9.25;;;6.45;;
28714;SDS011;15886;49.170;14.572;2023-05-10T22:41:40;8.00;;;5.78;;
28714;SDS011;15886;49.170;14.572;2023-05-10T22:44:12;9.57;;;5.97;;
28714;SDS011;15886;49.170;14.572;2023-05-10T22:46:52;12.48;;;6.15;;
28714;SDS011;15886;49.170;14.572;2023-05-10T22:50:09;8.60;;;5.47;;
28714;SDS011;15886;49.170;14.572;2023-05-10T22:53:17;10.88;;;5.60;;
28714;SDS011;15886;49.170;14.572;2023-05-10T22:55:52;8.98;;;5.57;;
28714;SDS011;15886;49.170;14.572;2023-05-10T22:58:26;11.50;;;5.53;;
28714;SDS011;15886;49.170;14.572;2023-05-10T23:01:01;13.00;;;6.20;;
28714;SDS011;15886;49.170;14.572;2023-05-10T23:03:32;10.85;;;5.93;;
28714;SDS011;15886;49.170;14.572;2023-05-10T23:06:02;9.50;;;6.47;;
28714;SDS011;15886;49.170;14.572;2023-05-10T23:08:32;8.85;;;6.22;;
28714;SDS011;15886;49.170;14.572;2023-05-10T23:14:39;9.25;;;6.22;;
28714;SDS011;15886;49.170;14.572;2023-05-10T23:21:02;10.57;;;7.32;;
28714;SDS011;15886;49.170;14.572;2023-05-10T23:23:33;10.75;;;7.32;;
28714;SDS011;15886;49.170;14.572;2023-05-10T23:26:11;11.25;;;7.32;;
28714;SDS011;15886;49.170;14.572;2023-05-10T23:29:16;9.27;;;7.32;;
28714;SDS011;15886;49.170;14.572;2023-05-10T23:31:57;10.52;;;7.50;;
28714;SDS011;15886;49.170;14.572;2023-05-10T23:34:26;11.35;;;7.70;;
28714;SDS011;15886;49.170;14.572;2023-05-10T23:36:54;16.75;;;7.40;;
28714;SDS011;15886;49.170;14.572;2023-05-10T23:39:25;9.40;;;6.50;;
28714;SDS011;15886;49.170;14.572;2023-05-10T23:41:54;12.85;;;7.10;;
28714;SDS011;15886;49.170;14.572;2023-05-10T23:44:23;7.60;;;6.28;;
28714;SDS011;15886;49.170;14.572;2023-05-10T23:46:52;8.77;;;5.95;;
28714;SDS011;15886;49.170;14.572;2023-05-10T23:49:20;9.73;;;6.80;;
28714;SDS011;15886;49.170;14.572;2023-05-10T23:51:49;8.98;;;6.45;;
28714;SDS011;15886;49.170;14.572;2023-05-10T23:54:18;10.38;;;5.93;;
28714;SDS011;15886;49.170;14.572;2023-05-10T23:57:00;13.77;;;6.78;;
28714;SDS011;15886;49.170;14.572;2023-05-10T23:59:33;8.43;;;6.93;;
